createdAt,value
2019-05-17T00:00:09.096Z,11.10
2019-05-17T00:02:37.791Z,12.60
2019-05-17T00:05:08.070Z,12.93
2019-05-17T00:07:37.147Z,13.17
2019-05-17T00:10:07.056Z,13.10
2019-05-17T00:12:36.737Z,14.77
2019-05-17T00:15:08.345Z,15.27
2019-05-17T00:17:37.805Z,14.03
2019-05-17T00:20:08.220Z,14.37
2019-05-17T00:22:36.870Z,15.03
2019-05-17T00:25:07.550Z,14.83
2019-05-17T00:27:36.917Z,16.03
2019-05-17T00:30:08.898Z,14.33
2019-05-17T00:32:37.328Z,15.33
2019-05-17T00:35:07.788Z,17.53
2019-05-17T00:37:37.316Z,17.50
2019-05-17T00:40:07.604Z,16.50
2019-05-17T00:42:37.259Z,16.10
2019-05-17T00:45:09.708Z,14.07
2019-05-17T00:47:38.204Z,13.97
2019-05-17T00:50:07.696Z,13.97
2019-05-17T00:52:36.951Z,15.83
2019-05-17T00:55:09.011Z,16.00
2019-05-17T00:57:37.513Z,17.17
2019-05-17T01:00:09.585Z,16.03
2019-05-17T01:02:38.087Z,16.03
2019-05-17T01:05:07.807Z,16.77
2019-05-17T01:07:37.744Z,18.77
2019-05-17T01:10:08.091Z,16.33
2019-05-17T01:12:36.851Z,18.03
2019-05-17T01:15:10.050Z,15.83
2019-05-17T01:17:38.463Z,16.43
2019-05-17T01:20:08.039Z,20.93
2019-05-17T01:22:36.886Z,19.57
2019-05-17T01:25:07.645Z,18.00
2019-05-17T01:27:38.186Z,21.10
2019-05-17T01:30:07.661Z,17.00
2019-05-17T01:32:37.440Z,17.33
2019-05-17T01:35:07.391Z,17.90
2019-05-17T01:37:36.988Z,16.60
2019-05-17T01:40:07.087Z,18.20
2019-05-17T01:42:37.506Z,17.80
2019-05-17T01:45:09.682Z,18.47
2019-05-17T01:47:38.187Z,16.73
2019-05-17T01:50:07.964Z,19.90
2019-05-17T01:52:37.001Z,18.53
2019-05-17T01:55:08.050Z,18.10
2019-05-17T01:57:37.241Z,19.10
2019-05-17T02:00:10.278Z,21.30
2019-05-17T02:02:41.093Z,16.37
2019-05-17T02:05:10.161Z,21.67
2019-05-17T02:07:38.643Z,15.77
2019-05-17T02:10:11.014Z,19.07
2019-05-17T02:12:39.451Z,17.80
2019-05-17T02:15:09.257Z,16.67
2019-05-17T02:17:37.970Z,20.77
2019-05-17T02:20:07.714Z,13.97
2019-05-17T02:22:36.715Z,15.43
2019-05-17T02:25:10.130Z,16.83
2019-05-17T02:27:41.893Z,17.57
2019-05-17T02:30:13.892Z,15.17
2019-05-17T02:32:43.027Z,16.67
2019-05-17T02:35:14.310Z,15.80
2019-05-17T02:37:43.592Z,16.77
2019-05-17T02:40:14.547Z,15.23
2019-05-17T02:42:43.580Z,14.07
2019-05-17T02:45:14.004Z,15.27
2019-05-17T02:47:43.528Z,15.27
2019-05-17T02:50:13.927Z,14.70
2019-05-17T02:52:43.571Z,15.23
2019-05-17T02:55:13.443Z,15.57
2019-05-17T02:57:43.341Z,19.17
2019-05-17T03:00:13.628Z,14.00
2019-05-17T03:02:43.416Z,16.80
2019-05-17T03:05:13.173Z,14.93
2019-05-17T03:07:43.788Z,16.50
2019-05-17T03:10:23.929Z,16.53
2019-05-17T03:12:44.757Z,15.67
2019-05-17T03:15:13.914Z,15.37
2019-05-17T03:17:43.441Z,17.80
2019-05-17T03:20:13.553Z,15.50
2019-05-17T03:22:44.160Z,16.40
2019-05-17T03:25:13.998Z,16.37
2019-05-17T03:27:43.289Z,16.53
2019-05-17T03:30:17.249Z,17.97
2019-05-17T03:32:47.217Z,17.90
2019-05-17T03:35:17.404Z,20.67
2019-05-17T03:37:45.156Z,19.30
2019-05-17T03:40:34.970Z,19.87
2019-05-17T03:42:44.658Z,18.80
2019-05-17T03:45:14.234Z,18.47
2019-05-17T03:47:44.223Z,18.37
2019-05-17T03:50:13.997Z,20.80
2019-05-17T03:52:44.682Z,20.10
2019-05-17T03:55:13.878Z,22.50
2019-05-17T03:57:44.099Z,18.60
2019-05-17T04:00:13.731Z,18.67
2019-05-17T04:02:44.506Z,20.17
2019-05-17T04:05:13.022Z,21.83
2019-05-17T04:07:43.442Z,19.23
2019-05-17T04:10:15.216Z,21.77
2019-05-17T04:12:44.028Z,19.17
2019-05-17T04:15:14.078Z,19.17
2019-05-17T04:17:43.949Z,23.47
2019-05-17T04:20:13.862Z,21.97
2019-05-17T04:22:44.387Z,21.53
2019-05-17T04:25:13.564Z,21.80
2019-05-17T04:27:43.635Z,23.93
2019-05-17T04:30:13.362Z,20.53
2019-05-17T04:32:44.045Z,22.10
2019-05-17T04:35:13.273Z,20.00
2019-05-17T04:37:44.795Z,20.00
2019-05-17T04:40:14.125Z,25.40
2019-05-17T04:42:44.251Z,24.10
2019-05-17T04:45:13.613Z,19.97
2019-05-17T04:47:44.318Z,23.17
2019-05-17T04:50:13.978Z,21.23
2019-05-17T04:52:43.423Z,28.53
2019-05-17T04:55:13.815Z,21.07
2019-05-17T04:57:44.040Z,22.00
2019-05-17T05:00:14.496Z,23.23
2019-05-17T05:02:44.317Z,21.47
2019-05-17T05:05:14.649Z,19.10
2019-05-17T05:07:43.696Z,18.07
2019-05-17T05:10:13.716Z,20.90
2019-05-17T05:12:43.441Z,23.70
2019-05-17T05:15:13.154Z,22.17
2019-05-17T05:17:42.577Z,18.47
2019-05-17T05:20:13.243Z,21.10
2019-05-17T05:22:42.888Z,19.73
2019-05-17T05:25:13.048Z,21.40
2019-05-17T05:27:42.575Z,20.53
2019-05-17T05:30:12.170Z,20.00
2019-05-17T05:32:42.674Z,21.20
2019-05-17T05:35:12.556Z,24.30
2019-05-17T05:37:42.291Z,20.10
2019-05-17T05:40:12.803Z,26.63
2019-05-17T05:42:42.637Z,22.27
2019-05-17T05:45:13.332Z,21.73
2019-05-17T05:47:43.330Z,17.90
2019-05-17T05:50:13.597Z,20.03
2019-05-17T05:52:42.706Z,26.93
2019-05-17T05:55:12.405Z,20.57
2019-05-17T05:57:41.987Z,20.83
2019-05-17T06:00:13.396Z,22.80
2019-05-17T06:02:42.313Z,19.40
2019-05-17T06:05:14.970Z,21.60
2019-05-17T06:07:42.012Z,20.13
2019-05-17T06:10:12.956Z,19.50
2019-05-17T06:12:43.463Z,24.90
2019-05-17T06:15:13.057Z,19.90
2019-05-17T06:17:43.053Z,17.70
2019-05-17T06:20:12.415Z,19.53
2019-05-17T06:22:42.805Z,21.20
2019-05-17T06:25:15.065Z,20.13
2019-05-17T06:27:41.794Z,19.13
2019-05-17T06:30:12.655Z,19.10
2019-05-17T06:32:43.289Z,19.27
2019-05-17T06:35:12.861Z,19.70
2019-05-17T06:37:42.504Z,17.47
2019-05-17T06:40:12.985Z,19.93
2019-05-17T06:42:45.244Z,22.90
2019-05-17T06:45:12.845Z,20.27
2019-05-17T06:47:42.738Z,18.67
2019-05-17T06:50:14.409Z,18.77
2019-05-17T06:52:43.542Z,18.63
2019-05-17T06:55:13.155Z,19.07
2019-05-17T06:57:43.306Z,17.23
2019-05-17T07:00:19.849Z,19.90
2019-05-17T07:02:42.968Z,18.80
2019-05-17T07:05:13.176Z,21.10
2019-05-17T07:07:41.655Z,19.43
2019-05-17T07:10:11.462Z,18.57
2019-05-17T07:12:54.510Z,21.30
2019-05-17T07:15:11.005Z,19.30
2019-05-17T07:17:40.120Z,19.40
2019-05-17T07:20:10.652Z,18.13
2019-05-17T07:22:40.902Z,17.47
2019-05-17T07:25:10.924Z,18.60
2019-05-17T07:27:44.721Z,18.13
2019-05-17T07:30:10.675Z,18.00
2019-05-17T07:32:40.555Z,16.17
2019-05-17T07:35:11.119Z,18.00
2019-05-17T07:37:39.921Z,16.63
2019-05-17T07:40:10.716Z,16.53
2019-05-17T07:42:40.020Z,13.97
2019-05-17T07:45:10.362Z,16.53
2019-05-17T07:47:40.433Z,18.77
2019-05-17T07:50:11.712Z,15.77
2019-05-17T07:52:40.547Z,17.80
2019-05-17T07:55:10.923Z,23.70
2019-05-17T07:57:41.018Z,16.70
2019-05-17T08:00:11.598Z,18.90
2019-05-17T08:02:40.512Z,15.10
2019-05-17T08:05:10.569Z,15.93
2019-05-17T08:07:40.607Z,17.30
2019-05-17T08:10:11.097Z,15.87
2019-05-17T08:12:40.743Z,14.30
2019-05-17T08:15:10.916Z,13.70
2019-05-17T08:17:40.047Z,13.80
2019-05-17T08:20:10.574Z,16.57
2019-05-17T08:22:40.078Z,14.27
2019-05-17T08:25:10.493Z,16.30
2019-05-17T08:27:40.474Z,14.13
2019-05-17T08:30:11.005Z,14.33
2019-05-17T08:32:40.319Z,14.73
2019-05-17T08:35:11.285Z,15.20
2019-05-17T08:37:42.500Z,13.47
2019-05-17T08:40:12.134Z,12.90
2019-05-17T08:42:41.354Z,11.53
2019-05-17T08:45:10.147Z,14.83
2019-05-17T08:47:39.642Z,14.00
2019-05-17T08:50:11.475Z,13.03
2019-05-17T08:52:40.259Z,17.23
2019-05-17T08:55:10.107Z,13.03
2019-05-17T08:57:40.145Z,15.30
2019-05-17T09:00:10.486Z,15.87
2019-05-17T09:02:40.846Z,15.10
2019-05-17T09:05:10.251Z,14.70
2019-05-17T09:07:40.219Z,13.70
2019-05-17T09:10:10.126Z,17.27
2019-05-17T09:12:40.907Z,17.27
2019-05-17T09:15:10.068Z,16.50
2019-05-17T09:17:39.585Z,21.00
2019-05-17T09:20:11.021Z,15.87
2019-05-17T09:22:39.963Z,17.40
2019-05-17T09:25:13.615Z,16.07
2019-05-17T09:27:40.064Z,14.80
2019-05-17T09:30:09.985Z,19.67
2019-05-17T09:32:40.505Z,16.43
2019-05-17T09:35:09.978Z,17.30
2019-05-17T09:37:41.315Z,15.43
2019-05-17T09:40:09.578Z,18.07
2019-05-17T09:42:40.765Z,17.27
2019-05-17T09:45:09.639Z,15.80
2019-05-17T09:47:39.803Z,17.10
2019-05-17T09:50:10.247Z,17.30
2019-05-17T09:52:40.575Z,15.87
2019-05-17T09:55:10.237Z,16.00
2019-05-17T09:57:40.912Z,14.70
2019-05-17T10:00:10.858Z,15.50
2019-05-17T10:02:40.404Z,16.60
2019-05-17T10:05:10.671Z,16.10
2019-05-17T10:07:40.304Z,15.70
2019-05-17T10:10:10.767Z,16.83
2019-05-17T10:12:40.378Z,15.77
2019-05-17T10:15:10.196Z,16.00
2019-05-17T10:17:38.893Z,16.17
2019-05-17T10:20:10.467Z,17.57
2019-05-17T10:22:40.177Z,15.80
2019-05-17T10:25:09.819Z,16.00
2019-05-17T10:27:40.424Z,17.90
2019-05-17T10:30:10.249Z,19.00
2019-05-17T10:32:40.815Z,15.00
2019-05-17T10:35:10.313Z,15.40
2019-05-17T10:37:40.767Z,16.87
2019-05-17T10:40:10.818Z,17.87
2019-05-17T10:42:39.889Z,17.57
2019-05-17T10:45:11.020Z,17.10
2019-05-17T10:47:40.073Z,17.30
2019-05-17T10:50:10.794Z,33.70
2019-05-17T10:52:41.004Z,13.87
2019-05-17T10:55:10.811Z,14.47
2019-05-17T10:57:39.598Z,19.77
2019-05-17T11:00:10.219Z,13.83
2019-05-17T11:02:39.033Z,14.07
2019-05-17T11:05:10.574Z,16.03
2019-05-17T11:07:39.097Z,14.27
2019-05-17T11:10:11.201Z,14.80
2019-05-17T11:12:38.355Z,17.70
2019-05-17T11:15:11.518Z,15.70
2019-05-17T11:17:38.336Z,14.47
2019-05-17T11:20:09.837Z,16.10
2019-05-17T11:22:38.536Z,16.53
2019-05-17T11:25:08.016Z,16.07
2019-05-17T11:27:36.516Z,14.67
2019-05-17T11:30:07.359Z,16.43
2019-05-17T11:32:35.868Z,13.80
2019-05-17T11:35:05.270Z,14.47
2019-05-17T11:37:33.762Z,15.10
2019-05-17T11:40:02.368Z,13.70
2019-05-17T11:42:30.928Z,14.57
2019-05-17T11:44:59.422Z,14.50
2019-05-17T11:47:27.848Z,14.80
2019-05-17T11:49:56.279Z,14.27
2019-05-17T11:52:24.811Z,14.57
2019-05-17T11:54:53.242Z,14.27
2019-05-17T11:57:21.774Z,13.03
2019-05-17T11:59:50.525Z,14.23
2019-05-17T12:02:21.461Z,15.67
2019-05-17T12:04:49.165Z,15.87
2019-05-17T12:07:18.850Z,12.63
2019-05-17T12:09:47.386Z,13.80
2019-05-17T12:12:15.893Z,12.53
2019-05-17T12:14:44.361Z,10.30
2019-05-17T12:17:12.795Z,12.97
2019-05-17T12:19:41.225Z,10.90
2019-05-17T12:22:09.756Z,8.13
2019-05-17T12:24:38.223Z,9.30
2019-05-17T12:27:06.643Z,9.43
2019-05-17T12:29:35.093Z,9.97
2019-05-17T12:32:03.687Z,8.40
2019-05-17T12:34:32.216Z,8.70
2019-05-17T12:37:00.718Z,8.33
2019-05-17T12:39:29.128Z,8.10
2019-05-17T12:41:57.643Z,7.90
2019-05-17T12:44:26.261Z,7.43
2019-05-17T12:46:54.694Z,8.17
2019-05-17T12:49:23.188Z,7.93
2019-05-17T12:51:51.635Z,7.83
2019-05-17T12:54:20.155Z,8.73
2019-05-17T12:56:48.575Z,7.63
2019-05-17T12:59:17.240Z,7.30
2019-05-17T13:01:45.718Z,8.20
2019-05-17T13:04:14.094Z,6.53
2019-05-17T13:06:42.637Z,6.70
2019-05-17T13:09:11.195Z,6.23
2019-05-17T13:11:39.698Z,7.43
2019-05-17T13:14:08.253Z,7.77
2019-05-17T13:16:36.740Z,6.93
2019-05-17T13:19:05.303Z,6.30
2019-05-17T13:21:33.758Z,6.77
2019-05-17T13:24:02.261Z,6.97
2019-05-17T13:26:30.773Z,6.30
2019-05-17T13:28:59.308Z,6.93
2019-05-17T13:31:27.750Z,6.17
2019-05-17T13:33:56.175Z,6.23
2019-05-17T13:36:24.713Z,6.57
2019-05-17T13:38:53.276Z,4.80
2019-05-17T13:41:21.707Z,6.50
2019-05-17T13:43:50.287Z,4.77
2019-05-17T13:46:32.277Z,7.37
2019-05-17T13:48:48.879Z,5.17
2019-05-17T13:51:17.328Z,5.80
2019-05-17T13:53:45.798Z,5.80
2019-05-17T13:56:14.330Z,5.90
2019-05-17T13:58:42.919Z,6.00
2019-05-17T14:01:13.110Z,5.60
2019-05-17T14:03:41.785Z,5.20
2019-05-17T14:06:10.310Z,4.97
2019-05-17T14:08:38.863Z,6.20
2019-05-17T14:11:07.319Z,5.70
2019-05-17T14:13:35.795Z,5.23
2019-05-17T14:16:04.470Z,5.87
2019-05-17T14:18:33.044Z,5.83
2019-05-17T14:21:01.698Z,4.23
2019-05-17T14:23:30.141Z,5.63
2019-05-17T14:25:58.734Z,5.80
2019-05-17T14:28:27.551Z,5.97
2019-05-17T14:30:56.044Z,6.07
2019-05-17T14:33:24.647Z,6.23
2019-05-17T14:35:53.173Z,5.90
2019-05-17T14:38:21.681Z,5.10
2019-05-17T14:41:08.313Z,5.23
2019-05-17T14:43:20.474Z,6.50
2019-05-17T14:45:48.900Z,5.63
2019-05-17T14:48:17.474Z,5.37
2019-05-17T14:50:45.925Z,5.00
2019-05-17T14:53:14.438Z,5.57
2019-05-17T14:55:42.862Z,5.30
2019-05-17T14:58:11.541Z,6.07
2019-05-17T15:00:40.005Z,5.60
2019-05-17T15:03:08.496Z,6.00
2019-05-17T15:05:37.055Z,6.10
2019-05-17T15:08:05.678Z,6.20
2019-05-17T15:10:34.215Z,5.37
2019-05-17T15:13:02.819Z,5.60
2019-05-17T15:15:31.302Z,5.50
2019-05-17T15:17:59.734Z,6.43
2019-05-17T15:20:28.194Z,5.63
2019-05-17T15:22:56.650Z,5.10
2019-05-17T15:25:25.202Z,6.30
2019-05-17T15:27:53.823Z,5.53
2019-05-17T15:30:22.335Z,5.23
2019-05-17T15:32:50.900Z,6.00
2019-05-17T15:35:19.420Z,6.17
2019-05-17T15:37:47.846Z,5.53
2019-05-17T15:40:16.398Z,6.20
2019-05-17T15:42:45.047Z,5.67
2019-05-17T15:45:13.577Z,6.47
2019-05-17T15:47:42.161Z,6.20
2019-05-17T15:50:11.223Z,7.70
2019-05-17T15:52:39.725Z,6.47
2019-05-17T15:55:08.512Z,4.77
2019-05-17T15:57:37.429Z,5.63
2019-05-17T16:00:07.877Z,3.83
2019-05-17T16:02:36.413Z,5.33
2019-05-17T16:05:05.615Z,5.53
2019-05-17T16:07:34.116Z,5.07
2019-05-17T16:10:02.930Z,6.47
2019-05-17T16:12:31.395Z,6.47
2019-05-17T16:14:59.872Z,5.40
2019-05-17T16:17:28.274Z,5.00
2019-05-17T16:19:56.879Z,4.83
2019-05-17T16:22:25.369Z,6.60
2019-05-17T16:24:53.840Z,5.70
2019-05-17T16:27:22.328Z,5.50
2019-05-17T16:29:50.760Z,6.40
2019-05-17T16:32:19.157Z,6.30
2019-05-17T16:34:47.622Z,6.90
2019-05-17T16:37:16.115Z,6.03
2019-05-17T16:39:44.543Z,6.90
2019-05-17T16:42:13.151Z,11.33
2019-05-17T16:44:41.588Z,6.20
2019-05-17T16:47:10.083Z,6.27
2019-05-17T16:49:38.597Z,6.50
2019-05-17T16:52:07.185Z,7.30
2019-05-17T16:54:35.752Z,6.33
2019-05-17T16:57:04.341Z,5.80
2019-05-17T16:59:32.803Z,6.20
2019-05-17T17:02:01.405Z,7.10
2019-05-17T17:04:30.098Z,6.97
2019-05-17T17:06:58.591Z,6.10
2019-05-17T17:09:27.137Z,5.73
2019-05-17T17:11:55.586Z,5.63
2019-05-17T17:14:24.119Z,5.70
2019-05-17T17:16:52.562Z,6.10
2019-05-17T17:19:21.037Z,6.17
2019-05-17T17:21:49.525Z,6.63
2019-05-17T17:24:18.045Z,5.43
2019-05-17T17:26:46.511Z,4.53
2019-05-17T17:29:15.089Z,9.43
2019-05-17T17:31:43.605Z,7.10
2019-05-17T17:34:12.075Z,6.00
2019-05-17T17:36:40.526Z,5.90
2019-05-17T17:39:09.078Z,5.70
2019-05-17T17:41:37.591Z,5.50
2019-05-17T17:44:06.422Z,5.10
2019-05-17T17:46:34.984Z,5.27
2019-05-17T17:49:03.597Z,5.17
2019-05-17T17:51:32.162Z,4.47
2019-05-17T17:54:00.604Z,9.27
2019-05-17T17:56:29.266Z,4.37
2019-05-17T17:58:57.702Z,4.90
2019-05-17T18:01:26.202Z,4.53
2019-05-17T18:03:54.717Z,5.17
2019-05-17T18:06:23.307Z,5.97
2019-05-17T18:08:51.732Z,7.77
2019-05-17T18:11:20.354Z,6.17
2019-05-17T18:13:48.787Z,5.80
2019-05-17T18:16:17.269Z,5.67
2019-05-17T18:18:45.791Z,5.70
2019-05-17T18:21:14.284Z,6.07
2019-05-17T18:23:42.778Z,5.93
2019-05-17T18:26:11.303Z,6.47
2019-05-17T18:28:39.733Z,5.83
2019-05-17T18:31:08.244Z,6.27
2019-05-17T18:33:36.758Z,6.63
2019-05-17T18:36:05.258Z,5.50
2019-05-17T18:38:35.223Z,4.30
2019-05-17T18:41:03.714Z,5.60
2019-05-17T18:43:32.211Z,5.30
2019-05-17T18:46:00.670Z,4.60
2019-05-17T18:48:29.194Z,5.60
2019-05-17T18:50:57.831Z,5.87
2019-05-17T18:53:26.396Z,5.77
2019-05-17T18:55:55.049Z,14.43
2019-05-17T18:58:23.631Z,6.37
2019-05-17T19:00:52.121Z,5.13
2019-05-17T19:03:20.792Z,6.07
2019-05-17T19:05:49.223Z,5.17
2019-05-17T19:08:17.691Z,4.30
2019-05-17T19:10:46.243Z,4.97
2019-05-17T19:13:14.805Z,5.50
2019-05-17T19:15:43.631Z,4.30
2019-05-17T19:18:12.163Z,4.83
2019-05-17T19:20:40.736Z,4.73
2019-05-17T19:23:09.223Z,4.83
2019-05-17T19:25:37.842Z,4.20
2019-05-17T19:28:06.532Z,5.47
2019-05-17T19:30:35.070Z,4.33
2019-05-17T19:33:03.700Z,5.50
2019-05-17T19:35:32.198Z,5.60
2019-05-17T19:38:00.689Z,5.03
2019-05-17T19:40:29.247Z,5.27
2019-05-17T19:42:57.717Z,5.20
2019-05-17T19:45:26.257Z,4.90
2019-05-17T19:47:54.854Z,4.77
2019-05-17T19:50:23.444Z,4.80
2019-05-17T19:52:51.841Z,5.00
2019-05-17T19:55:20.560Z,5.00
2019-05-17T19:57:49.012Z,5.00
2019-05-17T20:00:18.260Z,3.97
2019-05-17T20:02:46.790Z,4.60
2019-05-17T20:05:15.453Z,5.23
2019-05-17T20:07:44.087Z,7.20
2019-05-17T20:10:14.719Z,20.70
2019-05-17T20:12:43.176Z,19.83
2019-05-17T20:15:17.613Z,21.43
2019-05-17T20:17:42.466Z,21.80
2019-05-17T20:20:11.238Z,18.20
2019-05-17T20:22:39.668Z,12.80
2019-05-17T20:25:09.248Z,12.67
2019-05-17T20:27:37.776Z,10.90
2019-05-17T20:30:10.326Z,9.03
2019-05-17T20:32:39.143Z,5.97
2019-05-17T20:35:08.314Z,7.00
2019-05-17T20:37:36.822Z,6.80
2019-05-17T20:40:08.018Z,6.70
2019-05-17T20:42:36.485Z,6.83
2019-05-17T20:45:07.734Z,6.07
2019-05-17T20:47:36.275Z,5.33
2019-05-17T20:50:07.053Z,6.03
2019-05-17T20:52:35.739Z,6.13
2019-05-17T20:55:05.049Z,9.17
2019-05-17T20:57:33.492Z,14.30
2019-05-17T21:00:01.918Z,9.57
2019-05-17T21:02:30.665Z,5.73
2019-05-17T21:04:59.044Z,6.27
2019-05-17T21:07:27.482Z,12.87
2019-05-17T21:09:56.253Z,5.13
2019-05-17T21:12:24.724Z,7.47
2019-05-17T21:14:56.299Z,6.80
2019-05-17T21:17:23.458Z,7.23
2019-05-17T21:19:52.013Z,4.80
2019-05-17T21:22:20.427Z,3.47
2019-05-17T21:24:48.885Z,4.13
2019-05-17T21:27:17.305Z,2.40
2019-05-17T21:29:45.732Z,4.00
2019-05-17T21:32:14.196Z,3.57
2019-05-17T21:34:42.656Z,4.80
2019-05-17T21:37:11.079Z,3.93
2019-05-17T21:39:42.005Z,9.20
2019-05-17T21:42:09.847Z,6.17
2019-05-17T21:44:38.346Z,5.50
2019-05-17T21:47:07.033Z,6.27
2019-05-17T21:49:35.515Z,7.10
2019-05-17T21:52:04.034Z,6.30
2019-05-17T21:54:32.486Z,6.67
2019-05-17T21:57:00.912Z,5.80
2019-05-17T21:59:29.407Z,4.57
2019-05-17T22:01:58.324Z,5.60
2019-05-17T22:04:27.159Z,5.77
2019-05-17T22:06:55.750Z,11.97
2019-05-17T22:09:24.273Z,5.67
2019-05-17T22:11:54.362Z,4.80
2019-05-17T22:14:22.778Z,5.37
2019-05-17T22:16:51.411Z,7.57
2019-05-17T22:19:19.904Z,5.67
2019-05-17T22:21:48.394Z,6.10
2019-05-17T22:24:16.959Z,7.30
2019-05-17T22:26:45.384Z,5.70
2019-05-17T22:29:13.802Z,6.87
2019-05-17T22:31:42.336Z,6.43
2019-05-17T22:34:10.801Z,6.77
2019-05-17T22:36:39.225Z,6.83
2019-05-17T22:39:07.751Z,7.27
2019-05-17T22:41:36.253Z,6.87
2019-05-17T22:44:05.009Z,9.03
2019-05-17T22:46:35.925Z,9.47
2019-05-17T22:49:03.607Z,7.57
2019-05-17T22:51:32.030Z,7.43
2019-05-17T22:54:00.484Z,8.80
2019-05-17T22:56:28.909Z,7.03
2019-05-17T22:58:57.325Z,6.93
2019-05-17T23:01:25.858Z,7.37
2019-05-17T23:03:54.366Z,8.23
2019-05-17T23:06:22.786Z,7.40
2019-05-17T23:08:51.248Z,8.00
2019-05-17T23:11:19.726Z,7.30
2019-05-17T23:13:48.153Z,7.47
2019-05-17T23:16:16.810Z,8.50
2019-05-17T23:19:03.183Z,7.00
2019-05-17T23:21:31.894Z,11.63
2019-05-17T23:24:00.328Z,8.63
2019-05-17T23:26:28.783Z,8.63
2019-05-17T23:28:57.255Z,8.03
2019-05-17T23:31:25.782Z,8.57
2019-05-17T23:33:54.203Z,7.87
2019-05-17T23:36:22.890Z,9.67
2019-05-17T23:38:51.306Z,9.40
2019-05-17T23:41:19.867Z,8.73
2019-05-17T23:43:48.460Z,10.27
2019-05-17T23:46:16.887Z,8.40
2019-05-17T23:48:45.316Z,8.80
2019-05-17T23:51:13.769Z,8.03
2019-05-17T23:53:42.213Z,8.80
2019-05-17T23:56:10.664Z,10.37
2019-05-17T23:58:39.101Z,11.67
